Time;durP1;ratioP1;P1;durP2;ratioP2;P2;SDS_P1;SDS_P2;PMS_P1;PMS_P2;Temp;Humidity;BMP_temperature;BMP_pressure;BME280_temperature;BME280_humidity;BME280_pressure;Samples;Min_cycle;Max_cycle;Signal;HPM_P1;HPM_P2
2023/09/23 00:01:32;;;;;;;1068.97;899.72;;;12.60;99.90;;;;;;4908433;29;20052;-82
2023/09/23 00:03:58;;;;;;;1072.50;896.97;;;12.60;99.90;;;;;;4895841;29;20091;-82
2023/09/23 00:06:24;;;;;;;1182.97;930.10;;;12.60;99.90;;;;;;4898709;29;20136;-82
2023/09/23 00:08:50;;;;;;;1140.65;914.35;;;12.60;99.90;;;;;;4898800;29;20127;-82
2023/09/23 00:11:16;;;;;;;1117.22;899.58;;;12.60;99.90;;;;;;4896640;29;20469;-82
2023/09/23 00:13:42;;;;;;;1064.45;896.42;;;12.60;99.90;;;;;;4915225;29;20047;-82
2023/09/23 00:16:11;;;;;;;1038.80;885.90;;;12.50;99.90;;;;;;4914509;29;20493;-82
2023/09/23 00:18:38;;;;;;;1074.57;896.30;;;12.50;99.90;;;;;;4915069;29;20060;-83
2023/09/23 00:21:05;;;;;;;1075.00;900.35;;;12.50;99.90;;;;;;4889012;29;20045;-83
2023/09/23 00:23:32;;;;;;;1110.93;909.90;;;12.50;99.90;;;;;;4914520;29;20127;-84
2023/09/23 00:25:59;;;;;;;1144.72;923.08;;;12.50;99.90;;;;;;4896130;29;20057;-84
2023/09/23 00:28:30;;;;;;;1110.85;920.30;;;12.50;99.90;;;;;;4894681;29;20043;-84
2023/09/23 00:31:10;;;;;;;1088.82;917.40;;;12.50;99.90;;;;;;4908404;29;20056;-84
2023/09/23 00:33:37;;;;;;;1198.95;948.30;;;12.40;99.90;;;;;;4886834;29;20451;-83
2023/09/23 00:36:04;;;;;;;1213.80;942.92;;;12.40;99.90;;;;;;4894720;29;20058;-84
2023/09/23 00:38:32;;;;;;;1252.13;961.25;;;12.40;99.90;;;;;;4896795;29;20060;-84
2023/09/23 00:40:58;;;;;;;1170.05;928.38;;;12.40;99.90;;;;;;4895762;29;20427;-83
2023/09/23 00:43:24;;;;;;;1228.95;945.25;;;12.40;99.90;;;;;;4899600;29;20437;-84
2023/09/23 00:45:54;;;;;;;1219.30;948.47;;;12.40;99.90;;;;;;4898718;29;20050;-83
2023/09/23 00:48:21;;;;;;;1230.07;950.63;;;12.40;99.90;;;;;;4915958;29;20052;-84
2023/09/23 00:50:48;;;;;;;1250.85;959.13;;;12.40;99.90;;;;;;4898391;29;20058;-84
2023/09/23 00:53:14;;;;;;;1204.78;938.97;;;12.40;99.90;;;;;;4896615;29;20059;-83
2023/09/23 00:55:43;;;;;;;1160.70;930.78;;;12.40;99.90;;;;;;4897132;29;20076;-83
2023/09/23 00:58:17;;;;;;;1101.13;909.47;;;12.40;99.90;;;;;;4898550;29;20051;-83
2023/09/23 01:00:43;;;;;;;1121.38;924.40;;;12.40;99.90;;;;;;4898922;29;20048;-83
2023/09/23 01:03:12;;;;;;;1142.93;927.42;;;12.30;99.90;;;;;;4893305;29;20055;-83
2023/09/23 01:05:39;;;;;;;1180.15;930.33;;;12.30;99.90;;;;;;4914400;29;20044;-83
2023/09/23 01:08:18;;;;;;;1108.55;910.50;;;12.30;99.90;;;;;;4896869;29;20400;-83
2023/09/23 01:10:45;;;;;;;1217.78;943.53;;;12.30;99.90;;;;;;4895945;29;20044;-83
2023/09/23 01:13:11;;;;;;;1162.65;921.75;;;12.30;99.90;;;;;;4894304;29;20445;-83
2023/09/23 01:15:46;;;;;;;1171.30;936.30;;;12.20;99.90;;;;;;4888702;29;20560;-83
2023/09/23 01:18:13;;;;;;;1117.85;909.22;;;12.20;99.90;;;;;;4907741;29;20531;-84
2023/09/23 01:20:42;;;;;;;1110.28;906.15;;;12.20;99.90;;;;;;4892018;29;20052;-83
2023/09/23 01:23:10;;;;;;;1132.72;925.15;;;12.10;99.90;;;;;;4893304;29;20050;-84
2023/09/23 01:25:36;;;;;;;1141.13;927.60;;;12.10;99.90;;;;;;4892580;29;20116;-84
2023/09/23 01:28:08;;;;;;;1175.63;933.47;;;12.10;99.90;;;;;;4908573;29;20746;-84
2023/09/23 01:30:35;;;;;;;1220.10;942.83;;;12.10;99.90;;;;;;4895365;29;20058;-84
2023/09/23 01:33:05;;;;;;;1263.00;952.65;;;12.00;99.90;;;;;;4911595;29;20177;-84
2023/09/23 01:35:31;;;;;;;1303.78;969.65;;;12.00;99.90;;;;;;4886564;29;20107;-84
2023/09/23 01:37:58;;;;;;;1190.78;938.95;;;12.00;99.90;;;;;;4909626;29;20096;-84
2023/09/23 01:40:24;;;;;;;1414.70;986.58;;;12.00;99.90;;;;;;4911023;29;20795;-84
2023/09/23 01:42:51;;;;;;;1383.28;982.50;;;12.00;99.90;;;;;;4883663;29;20048;-84
2023/09/23 01:45:22;;;;;;;1220.90;948.60;;;12.00;99.90;;;;;;4900930;29;20044;-84
2023/09/23 01:47:49;;;;;;;1375.25;986.13;;;12.00;99.90;;;;;;4894272;29;20051;-84
2023/09/23 01:50:17;;;;;;;1263.47;956.28;;;12.00;99.90;;;;;;4892823;29;20055;-84
2023/09/23 01:52:43;;;;;;;1278.05;962.72;;;12.00;99.90;;;;;;4910975;29;20055;-84
2023/09/23 01:55:11;;;;;;;1358.20;984.63;;;12.00;99.90;;;;;;4895900;29;20044;-83
2023/09/23 01:57:41;;;;;;;1422.53;988.08;;;11.90;99.90;;;;;;4892997;29;20332;-83
2023/09/23 02:00:15;;;;;;;1263.47;959.28;;;11.90;99.90;;;;;;4905144;29;20052;-84
2023/09/23 02:02:42;;;;;;;1388.97;979.95;;;11.90;99.90;;;;;;4895327;29;20044;-83
2023/09/23 02:05:08;;;;;;;1425.43;991.08;;;11.90;99.90;;;;;;4895880;29;20043;-84
2023/09/23 02:07:34;;;;;;;1242.22;948.13;;;11.90;99.90;;;;;;4892940;29;20045;-84
2023/09/23 02:10:00;;;;;;;1382.10;995.72;;;11.90;99.90;;;;;;4906518;29;20479;-84
2023/09/23 02:12:26;;;;;;;1379.55;991.42;;;11.90;99.90;;;;;;4892757;29;20418;-83
2023/09/23 02:14:53;;;;;;;1226.90;961.60;;;11.80;99.90;;;;;;4889405;29;20658;-83
2023/09/23 02:17:20;;;;;;;1211.38;940.38;;;11.80;99.90;;;;;;4895871;29;20063;-83
2023/09/23 02:19:46;;;;;;;1217.40;949.78;;;11.80;99.90;;;;;;4893260;29;20548;-83
2023/09/23 02:22:12;;;;;;;1427.00;994.95;;;11.80;99.90;;;;;;4910893;29;20051;-84
2023/09/23 02:24:39;;;;;;;1226.97;955.58;;;11.80;99.90;;;;;;4892750;29;20115;-83
2023/09/23 02:27:04;;;;;;;1439.65;991.30;;;11.70;99.90;;;;;;4892796;29;20048;-83
2023/09/23 02:29:31;;;;;;;1411.90;993.40;;;11.70;99.90;;;;;;4904335;29;20063;-82
2023/09/23 02:31:57;;;;;;;1280.65;972.58;;;11.70;99.90;;;;;;4895541;29;20052;-83
2023/09/23 02:34:23;;;;;;;1488.43;995.67;;;11.60;99.90;;;;;;4911308;29;20048;-83
2023/09/23 02:36:50;;;;;;;1314.40;975.05;;;11.70;99.90;;;;;;4886823;29;20052;-83
2023/09/23 02:39:19;;;;;;;1328.63;975.72;;;11.60;99.90;;;;;;4906218;29;20056;-83
2023/09/23 02:41:46;;;;;;;1540.05;999.90;;;11.60;99.90;;;;;;4891902;29;20044;-82
2023/09/23 02:44:19;;;;;;;1530.03;999.90;;;11.60;99.90;;;;;;4906422;29;20321;-83
2023/09/23 02:46:53;;;;;;;1761.85;999.90;;;11.70;99.90;;;;;;4891685;29;20180;-82
2023/09/23 02:49:19;;;;;;;1409.57;995.30;;;11.60;99.90;;;;;;4908377;29;20408;-82
2023/09/23 02:51:45;;;;;;;1563.38;999.90;;;11.60;99.90;;;;;;4894230;29;20048;-83
2023/09/23 02:54:18;;;;;;;1551.47;999.90;;;11.60;99.90;;;;;;4910310;29;20624;-82
2023/09/23 02:56:47;;;;;;;1540.28;999.90;;;11.60;99.90;;;;;;4910747;29;20261;-82
2023/09/23 02:59:15;;;;;;;1468.60;999.90;;;11.60;99.90;;;;;;4886518;29;20077;-82
2023/09/23 03:01:45;;;;;;;1566.00;999.90;;;11.60;99.90;;;;;;4894286;29;20559;-83
2023/09/23 03:04:19;;;;;;;1483.57;999.90;;;11.60;99.90;;;;;;4906290;29;20496;-82
2023/09/23 03:06:53;;;;;;;1625.90;999.90;;;11.50;99.90;;;;;;4905068;29;20503;-82
2023/09/23 03:09:24;;;;;;;1667.88;999.90;;;11.50;99.90;;;;;;4895071;29;20040;-82
2023/09/23 03:11:56;;;;;;;1433.60;999.90;;;11.60;99.90;;;;;;4893311;29;20063;-82
2023/09/23 03:14:36;;;;;;;1652.90;999.90;;;11.50;99.90;;;;;;4909727;29;20567;-82
2023/09/23 03:17:07;;;;;;;1426.20;999.90;;;11.50;99.90;;;;;;4894245;29;20050;-82
2023/09/23 03:19:33;;;;;;;1454.30;999.50;;;11.50;99.90;;;;;;4890072;29;20060;-82
2023/09/23 03:22:00;;;;;;;1435.07;994.53;;;11.50;99.90;;;;;;4891056;29;20151;-82
2023/09/23 03:24:29;;;;;;;1573.80;999.90;;;11.50;99.90;;;;;;4887877;29;20050;-82
2023/09/23 03:27:00;;;;;;;1638.78;999.90;;;11.50;99.90;;;;;;4896779;29;20404;-82
2023/09/23 03:29:28;;;;;;;1583.75;999.90;;;11.50;99.90;;;;;;4908947;29;20170;-83
2023/09/23 03:31:58;;;;;;;1443.40;999.90;;;11.40;99.90;;;;;;4909702;29;20056;-82
2023/09/23 03:34:23;;;;;;;1363.72;989.33;;;11.50;99.90;;;;;;4909829;29;20161;-82
2023/09/23 03:36:51;;;;;;;1584.82;999.90;;;11.40;99.90;;;;;;4909768;29;20127;-82
2023/09/23 03:39:17;;;;;;;1584.22;999.90;;;11.40;99.90;;;;;;4891450;29;20096;-82
2023/09/23 03:41:46;;;;;;;1362.55;993.70;;;11.40;99.90;;;;;;4909794;29;20048;-82
2023/09/23 03:44:14;;;;;;;1538.45;999.90;;;11.40;99.90;;;;;;4909798;29;20051;-82
2023/09/23 03:46:53;;;;;;;1388.82;996.88;;;11.30;99.90;;;;;;4908707;29;20058;-83
2023/09/23 03:49:20;;;;;;;1374.72;991.83;;;11.30;99.90;;;;;;4905358;29;20527;-82
2023/09/23 03:51:45;;;;;;;1610.97;999.90;;;11.30;99.90;;;;;;4901901;29;20063;-82
2023/09/23 03:54:11;;;;;;;1591.28;999.90;;;11.20;99.90;;;;;;4889438;29;20045;-82
2023/09/23 03:56:40;;;;;;;1630.20;999.90;;;11.20;99.90;;;;;;4901752;29;20051;-82
2023/09/23 03:59:06;;;;;;;1673.53;999.90;;;11.20;99.90;;;;;;4883104;29;20048;-82
2023/09/23 04:01:32;;;;;;;1674.32;999.90;;;11.20;99.90;;;;;;4882384;29;20499;-83
2023/09/23 04:03:58;;;;;;;1436.63;998.55;;;11.20;99.90;;;;;;4908021;29;20131;-82
2023/09/23 04:06:24;;;;;;;1594.90;999.90;;;11.10;99.90;;;;;;4890966;29;20136;-83
2023/09/23 04:08:50;;;;;;;1492.75;999.90;;;11.20;99.90;;;;;;4908178;29;20070;-82
2023/09/23 04:11:16;;;;;;;1452.10;999.85;;;11.10;99.90;;;;;;4909420;29;20497;-82
2023/09/23 04:13:44;;;;;;;1415.32;997.15;;;11.10;99.90;;;;;;4904812;29;20507;-82
2023/09/23 04:16:11;;;;;;;1670.85;999.90;;;11.10;99.90;;;;;;4901623;29;20056;-82
2023/09/23 04:18:37;;;;;;;1496.40;999.90;;;11.10;99.90;;;;;;4909204;29;20116;-83
2023/09/23 04:21:03;;;;;;;1438.50;998.55;;;11.20;99.90;;;;;;4893647;29;20504;-83
2023/09/23 04:23:29;;;;;;;1453.32;999.28;;;11.10;99.90;;;;;;4909353;29;20052;-83
2023/09/23 04:25:55;;;;;;;1476.90;999.28;;;11.20;99.90;;;;;;4908898;29;20101;-82
2023/09/23 04:28:22;;;;;;;1423.18;998.33;;;11.10;99.90;;;;;;4896202;29;20075;-82
2023/09/23 04:30:54;;;;;;;1645.00;999.90;;;11.20;99.90;;;;;;4908263;29;20095;-82
2023/09/23 04:33:21;;;;;;;1544.80;999.90;;;11.10;99.90;;;;;;4909127;29;20044;-83
2023/09/23 04:35:56;;;;;;;1498.40;999.90;;;11.10;99.90;;;;;;4908440;29;20067;-82
2023/09/23 04:38:23;;;;;;;1529.35;999.90;;;11.20;99.90;;;;;;4895569;29;20441;-82
2023/09/23 04:40:49;;;;;;;1661.53;999.90;;;11.20;99.90;;;;;;4905167;29;20519;-82
2023/09/23 04:43:16;;;;;;;1436.93;999.90;;;11.20;99.90;;;;;;4908510;29;20044;-82
2023/09/23 04:45:42;;;;;;;1603.20;999.90;;;11.20;99.90;;;;;;4908122;29;20056;-82
2023/09/23 04:48:08;;;;;;;1585.78;999.90;;;11.20;99.90;;;;;;4890770;29;20059;-82
2023/09/23 04:50:35;;;;;;;1422.90;996.85;;;11.20;99.90;;;;;;4905948;29;20043;-82
2023/09/23 04:53:02;;;;;;;1414.78;990.83;;;11.20;99.90;;;;;;4913152;29;20060;-82
2023/09/23 04:55:28;;;;;;;1557.03;999.90;;;11.20;99.90;;;;;;4913295;29;20052;-82
2023/09/23 04:57:55;;;;;;;1328.53;975.28;;;11.20;99.90;;;;;;4909063;29;20119;-82
2023/09/23 05:00:21;;;;;;;1549.20;999.90;;;11.10;99.90;;;;;;4908085;29;20074;-82
2023/09/23 05:02:49;;;;;;;1335.60;977.70;;;11.10;99.90;;;;;;4912951;29;20052;-82
2023/09/23 05:05:17;;;;;;;1320.85;971.22;;;11.10;99.90;;;;;;4895160;29;20071;-82
2023/09/23 05:07:43;;;;;;;1492.60;999.90;;;11.10;99.90;;;;;;4894068;29;20209;-82
2023/09/23 05:10:12;;;;;;;1471.90;999.90;;;11.10;99.90;;;;;;4893406;29;20129;-82
2023/09/23 05:12:39;;;;;;;1500.15;999.90;;;11.10;99.90;;;;;;4911848;29;20434;-82
2023/09/23 05:15:06;;;;;;;1283.88;970.30;;;11.10;99.90;;;;;;4899513;29;20627;-82
2023/09/23 05:17:31;;;;;;;1439.43;997.88;;;11.10;99.90;;;;;;4913206;29;20063;-82
2023/09/23 05:19:58;;;;;;;1372.47;988.50;;;11.00;99.90;;;;;;4912043;29;20052;-82
2023/09/23 05:22:24;;;;;;;1504.15;999.90;;;11.00;99.90;;;;;;4912504;29;20044;-82
2023/09/23 05:24:56;;;;;;;1299.45;975.15;;;11.10;99.90;;;;;;4908888;29;20075;-82
2023/09/23 05:27:22;;;;;;;1659.95;999.90;;;11.00;99.90;;;;;;4895252;29;20053;-82
2023/09/23 05:29:50;;;;;;;1313.28;980.60;;;11.00;99.90;;;;;;4890310;29;20104;-82
2023/09/23 05:32:16;;;;;;;1360.07;981.65;;;11.00;99.90;;;;;;4900499;29;20051;-82
2023/09/23 05:34:42;;;;;;;1471.65;999.70;;;11.00;99.90;;;;;;4906323;29;20056;-82
2023/09/23 05:37:11;;;;;;;1600.57;999.90;;;11.00;99.90;;;;;;4905875;29;20473;-82
2023/09/23 05:39:37;;;;;;;1527.07;999.90;;;10.90;99.90;;;;;;4904709;29;20052;-82
2023/09/23 05:42:03;;;;;;;1509.57;999.90;;;11.00;99.90;;;;;;4905810;29;20095;-82
2023/09/23 05:44:29;;;;;;;1520.80;999.90;;;11.00;99.90;;;;;;4890067;29;20119;-81
2023/09/23 05:46:55;;;;;;;1551.32;999.90;;;10.90;99.90;;;;;;4903643;29;20163;-81
2023/09/23 05:49:21;;;;;;;1390.10;989.58;;;11.00;99.90;;;;;;4911176;29;20410;-82
2023/09/23 05:51:52;;;;;;;1366.63;989.33;;;11.00;99.90;;;;;;4911708;29;20386;-83
2023/09/23 05:54:19;;;;;;;1372.68;995.67;;;11.00;99.90;;;;;;4910823;29;20067;-81
2023/09/23 05:56:45;;;;;;;1374.90;996.08;;;11.00;99.90;;;;;;4892542;29;20048;-82
2023/09/23 05:59:11;;;;;;;1543.53;999.90;;;11.00;99.90;;;;;;4893333;29;20048;-82
2023/09/23 06:01:40;;;;;;;1530.35;999.90;;;10.90;99.90;;;;;;4901240;29;20048;-81
2023/09/23 06:04:09;;;;;;;1390.05;996.38;;;11.00;99.90;;;;;;4905909;29;20048;-81
2023/09/23 06:06:38;;;;;;;1317.32;989.58;;;11.00;99.90;;;;;;4906652;29;20222;-82
2023/09/23 06:09:06;;;;;;;1305.82;972.22;;;11.00;99.90;;;;;;4906553;29;20051;-81
2023/09/23 06:11:35;;;;;;;1474.25;999.90;;;11.00;99.90;;;;;;4908662;29;20401;-82
2023/09/23 06:14:01;;;;;;;1506.68;999.90;;;11.00;99.90;;;;;;4901521;29;20053;-82
2023/09/23 06:16:26;;;;;;;1503.97;999.90;;;11.00;99.90;;;;;;4896668;29;20074;-81
2023/09/23 06:18:52;;;;;;;1278.88;960.75;;;11.00;99.90;;;;;;4901585;29;20063;-82
2023/09/23 06:21:18;;;;;;;1331.90;977.30;;;11.10;99.90;;;;;;4907619;29;20058;-81
2023/09/23 06:23:44;;;;;;;1518.43;999.90;;;11.00;99.90;;;;;;4908782;29;20055;-82
2023/09/23 06:26:10;;;;;;;1543.85;999.90;;;11.00;99.90;;;;;;4904862;29;20060;-81
2023/09/23 06:28:36;;;;;;;1350.45;991.97;;;11.10;99.90;;;;;;4903474;29;20044;-81
2023/09/23 06:31:03;;;;;;;1417.10;995.97;;;11.20;99.90;;;;;;4894537;29;20643;-81
2023/09/23 06:33:29;;;;;;;1563.35;999.90;;;11.20;99.90;;;;;;4901553;29;20156;-81
2023/09/23 06:35:55;;;;;;;1372.53;992.63;;;11.20;99.90;;;;;;4902482;29;20037;-81
2023/09/23 06:38:21;;;;;;;1392.80;999.25;;;11.30;99.90;;;;;;4908118;29;20512;-81
2023/09/23 06:40:47;;;;;;;1486.85;999.90;;;11.40;99.90;;;;;;4902437;29;20100;-81
2023/09/23 06:43:13;;;;;;;1336.53;989.88;;;11.40;99.90;;;;;;4908041;29;20400;-82
2023/09/23 06:45:39;;;;;;;1291.88;975.30;;;11.50;99.90;;;;;;4902470;29;20056;-82
2023/09/23 06:48:05;;;;;;;1300.22;983.67;;;11.50;99.90;;;;;;4897323;29;20059;-82
2023/09/23 06:50:31;;;;;;;1300.93;977.40;;;11.60;99.90;;;;;;4894878;29;20841;-82
2023/09/23 06:52:57;;;;;;;1285.50;972.35;;;11.60;99.90;;;;;;4908157;29;20048;-82
2023/09/23 06:55:23;;;;;;;1345.95;994.03;;;11.70;99.90;;;;;;4905733;29;20087;-81
2023/09/23 06:57:49;;;;;;;1305.50;980.25;;;11.80;99.90;;;;;;4906501;29;20051;-81
2023/09/23 07:00:16;;;;;;;1462.50;999.90;;;11.90;99.90;;;;;;4898876;29;20060;-81
2023/09/23 07:02:44;;;;;;;1323.00;988.88;;;12.00;99.90;;;;;;4907612;29;20055;-82
2023/09/23 07:05:10;;;;;;;1338.53;990.85;;;12.20;99.90;;;;;;4906616;29;20055;-81
2023/09/23 07:07:36;;;;;;;1304.03;983.78;;;12.20;99.90;;;;;;4895875;29;20048;-82
2023/09/23 07:10:04;;;;;;;1146.72;944.10;;;12.30;99.90;;;;;;4882506;29;20056;-81
2023/09/23 07:12:29;;;;;;;1091.85;926.38;;;12.40;99.90;;;;;;4898790;29;20047;-81
2023/09/23 07:14:55;;;;;;;1061.20;917.08;;;12.40;99.90;;;;;;4890542;29;20067;-81
2023/09/23 07:17:21;;;;;;;1073.03;913.28;;;12.40;99.90;;;;;;4904171;29;20087;-82
2023/09/23 07:19:47;;;;;;;1069.38;909.00;;;12.50;99.90;;;;;;4892807;29;20125;-82
2023/09/23 07:22:13;;;;;;;1085.15;915.75;;;12.60;99.90;;;;;;4905398;29;20501;-81
2023/09/23 07:24:39;;;;;;;1021.88;894.65;;;12.60;99.90;;;;;;4895639;29;20079;-82
2023/09/23 07:27:04;;;;;;;1044.07;906.25;;;12.60;99.90;;;;;;4887252;29;20052;-81
2023/09/23 07:29:32;;;;;;;995.80;888.30;;;12.70;99.90;;;;;;4897075;29;20146;-82
2023/09/23 07:31:58;;;;;;;963.60;858.47;;;12.70;99.90;;;;;;4900984;29;20204;-82
2023/09/23 07:34:23;;;;;;;973.47;864.25;;;12.70;99.90;;;;;;4906967;29;20623;-81
2023/09/23 07:36:49;;;;;;;965.65;861.90;;;12.90;99.90;;;;;;4906493;29;20047;-81
2023/09/23 07:39:16;;;;;;;980.78;874.35;;;12.90;99.90;;;;;;4896744;29;20135;-81
2023/09/23 07:41:42;;;;;;;950.03;848.90;;;13.00;99.90;;;;;;4891515;29;20416;-81
2023/09/23 07:44:08;;;;;;;1050.50;915.38;;;13.10;99.90;;;;;;4909436;29;20048;-81
2023/09/23 07:46:34;;;;;;;940.53;839.55;;;13.30;99.90;;;;;;4906629;29;20048;-81
2023/09/23 07:49:00;;;;;;;915.53;819.95;;;13.40;99.90;;;;;;4895792;29;20056;-81
2023/09/23 07:51:25;;;;;;;936.70;836.72;;;13.50;99.90;;;;;;4895906;29;20421;-82
2023/09/23 07:53:52;;;;;;;904.97;810.80;;;13.40;99.90;;;;;;4893935;29;20052;-81
2023/09/23 07:56:18;;;;;;;925.88;827.70;;;13.40;99.90;;;;;;4877597;29;20099;-82
2023/09/23 07:58:43;;;;;;;903.20;810.05;;;13.30;99.90;;;;;;4888229;29;20080;-82
2023/09/23 08:01:09;;;;;;;915.88;819.47;;;13.40;99.90;;;;;;4905800;29;20557;-82
2023/09/23 08:03:35;;;;;;;885.05;793.53;;;13.50;99.90;;;;;;4907256;29;20048;-82
2023/09/23 08:06:01;;;;;;;954.83;849.78;;;13.60;99.90;;;;;;4906079;29;20152;-83
2023/09/23 08:08:26;;;;;;;886.63;793.10;;;13.90;99.90;;;;;;4907184;29;20581;-82
2023/09/23 08:10:53;;;;;;;901.35;806.22;;;14.00;99.90;;;;;;4888027;29;20461;-82
2023/09/23 08:13:20;;;;;;;947.33;841.50;;;14.10;99.90;;;;;;4880567;29;20056;-82
2023/09/23 08:15:46;;;;;;;937.33;830.45;;;14.20;99.90;;;;;;4880799;29;20044;-82
2023/09/23 08:18:12;;;;;;;907.28;808.80;;;14.30;99.90;;;;;;4909208;29;20139;-81
2023/09/23 08:20:39;;;;;;;956.88;828.72;;;14.30;99.90;;;;;;4907914;29;20099;-82
2023/09/23 08:23:05;;;;;;;966.63;849.65;;;14.40;99.90;;;;;;4892626;29;20048;-82
2023/09/23 08:25:31;;;;;;;917.08;815.88;;;14.40;99.90;;;;;;4904774;29;20409;-82
2023/09/23 08:27:57;;;;;;;947.33;840.45;;;14.40;99.90;;;;;;4899525;29;20689;-82
2023/09/23 08:30:23;;;;;;;961.90;854.38;;;14.40;99.90;;;;;;4896861;29;20633;-82
2023/09/23 08:32:49;;;;;;;908.67;814.80;;;14.50;99.90;;;;;;4895761;29;20064;-81
2023/09/23 08:35:15;;;;;;;920.50;819.45;;;14.50;99.90;;;;;;4895012;29;20055;-81
2023/09/23 08:37:41;;;;;;;989.80;852.83;;;14.40;99.90;;;;;;4912874;29;20803;-80
2023/09/23 08:40:10;;;;;;;861.47;771.45;;;14.40;99.90;;;;;;4893465;29;20053;-81
2023/09/23 08:42:40;;;;;;;909.08;810.58;;;14.40;99.90;;;;;;4893807;29;20087;-82
2023/09/23 08:45:09;;;;;;;926.40;824.25;;;14.40;99.90;;;;;;4896538;29;20052;-82
2023/09/23 08:47:39;;;;;;;950.50;839.58;;;14.40;99.90;;;;;;4913234;29;20143;-82
2023/09/23 08:50:09;;;;;;;872.40;780.58;;;14.30;99.90;;;;;;4913660;29;20146;-82
2023/09/23 08:52:35;;;;;;;928.88;824.80;;;14.30;99.90;;;;;;4912612;29;20461;-82
2023/09/23 08:55:04;;;;;;;964.33;858.75;;;14.30;99.90;;;;;;4912396;29;20056;-82
2023/09/23 08:57:30;;;;;;;931.85;831.53;;;14.50;99.90;;;;;;4912222;29;20072;-81
2023/09/23 08:59:57;;;;;;;946.33;844.22;;;14.60;99.90;;;;;;4911255;29;20098;-80
2023/09/23 09:02:25;;;;;;;883.45;792.50;;;14.80;99.90;;;;;;4913074;29;20052;-80
2023/09/23 09:04:55;;;;;;;895.40;800.15;;;14.90;99.90;;;;;;4911315;29;20134;-80
2023/09/23 09:07:34;;;;;;;824.30;742.97;;;15.00;99.90;;;;;;4906068;29;20135;-80
2023/09/23 09:10:00;;;;;;;829.20;747.17;;;15.20;99.90;;;;;;4911219;29;20052;-80
2023/09/23 09:12:27;;;;;;;837.63;752.92;;;15.40;99.90;;;;;;4905618;29;20047;-80
2023/09/23 09:14:53;;;;;;;877.20;789.05;;;15.50;99.90;;;;;;4899962;29;20501;-80
2023/09/23 09:17:19;;;;;;;917.80;825.60;;;15.50;99.90;;;;;;4913094;29;20060;-80
2023/09/23 09:19:45;;;;;;;874.17;785.42;;;15.50;99.90;;;;;;4911926;29;20084;-81
2023/09/23 09:22:11;;;;;;;872.65;787.22;;;15.60;99.90;;;;;;4904220;29;20044;-79
2023/09/23 09:24:37;;;;;;;896.28;806.63;;;15.70;99.90;;;;;;4905031;29;20138;-80
2023/09/23 09:27:07;;;;;;;885.05;795.45;;;15.60;99.90;;;;;;4904533;29;20503;-80
2023/09/23 09:29:33;;;;;;;903.83;812.42;;;15.70;99.90;;;;;;4903217;29;20059;-80
2023/09/23 09:32:03;;;;;;;882.78;796.13;;;15.80;99.90;;;;;;4901930;29;20405;-80
2023/09/23 09:34:31;;;;;;;897.45;806.17;;;15.90;99.90;;;;;;4898542;29;20148;-80
2023/09/23 09:36:57;;;;;;;923.90;829.88;;;15.90;99.90;;;;;;4900748;29;20052;-81
2023/09/23 09:39:28;;;;;;;884.85;797.65;;;16.00;99.90;;;;;;4903725;29;20115;-80
2023/09/23 09:41:56;;;;;;;835.40;756.42;;;16.20;99.90;;;;;;4903984;29;20078;-81
2023/09/23 09:44:28;;;;;;;774.92;703.58;;;16.40;99.90;;;;;;4903526;29;20110;-81
2023/09/23 09:46:55;;;;;;;745.67;676.83;;;16.50;99.90;;;;;;4907769;29;20056;-86
2023/09/23 09:49:24;;;;;;;704.70;640.85;;;16.60;99.90;;;;;;4906785;29;20049;-85
2023/09/23 09:51:51;;;;;;;765.53;696.25;;;16.60;99.90;;;;;;4903295;29;20400;-84
2023/09/23 09:54:19;;;;;;;734.38;664.40;;;16.60;99.90;;;;;;4906648;29;20150;-86
2023/09/23 09:56:49;;;;;;;759.47;688.83;;;16.60;99.90;;;;;;4893281;29;20375;-80
2023/09/23 09:59:26;;;;;;;717.63;650.13;;;16.60;99.90;;;;;;4886466;29;20079;-82
2023/09/23 10:01:55;;;;;;;683.38;620.42;;;16.60;99.90;;;;;;4904463;29;20135;-80
2023/09/23 10:04:21;;;;;;;786.17;712.05;;;16.60;99.90;;;;;;4911642;29;20039;-80
2023/09/23 10:06:56;;;;;;;707.42;642.30;;;16.60;99.90;;;;;;4882226;29;20066;-80
2023/09/23 10:09:27;;;;;;;733.58;665.65;;;16.50;99.90;;;;;;4912644;29;20393;-81
2023/09/23 10:11:56;;;;;;;677.00;612.63;;;16.50;99.90;;;;;;4895052;29;20497;-80
2023/09/23 10:14:22;;;;;;;667.78;607.03;;;16.50;99.90;;;;;;4902322;29;20041;-82
2023/09/23 10:16:50;;;;;;;568.67;518.53;;;16.60;99.90;;;;;;4892167;29;20044;-83
2023/09/23 10:19:19;;;;;;;637.03;580.10;;;16.80;99.90;;;;;;4911251;29;20135;-79
2023/09/23 10:21:46;;;;;;;608.17;553.53;;;16.90;99.90;;;;;;4910995;29;20461;-80
2023/09/23 10:24:20;;;;;;;565.67;514.63;;;17.00;99.90;;;;;;4911560;29;20079;-84
2023/09/23 10:26:46;;;;;;;661.45;598.30;;;17.00;99.90;;;;;;4910549;29;20052;-82
2023/09/23 10:29:12;;;;;;;657.33;594.38;;;17.10;99.90;;;;;;4911042;29;20108;-82
2023/09/23 10:31:38;;;;;;;614.70;556.70;;;17.10;99.90;;;;;;4909414;29;20504;-83
2023/09/23 10:34:05;;;;;;;780.50;702.03;;;16.90;99.90;;;;;;4910669;29;20385;-82
2023/09/23 10:36:30;;;;;;;680.63;613.83;;;16.80;99.90;;;;;;4899023;29;20091;-82
2023/09/23 10:38:57;;;;;;;630.20;570.65;;;16.70;99.90;;;;;;4910050;29;20523;-82
2023/09/23 10:41:32;;;;;;;735.00;660.88;;;16.60;99.90;;;;;;4909833;29;20088;-81
2023/09/23 10:43:57;;;;;;;710.30;636.80;;;16.40;99.90;;;;;;4894485;29;20433;-82
2023/09/23 10:46:23;;;;;;;645.97;580.95;;;16.30;99.90;;;;;;4910157;29;20044;-81
2023/09/23 10:48:50;;;;;;;678.60;611.95;;;16.20;99.90;;;;;;4909228;29;20048;-81
2023/09/23 10:51:16;;;;;;;672.33;607.13;;;16.10;99.90;;;;;;4904565;29;20060;-82
2023/09/23 10:53:42;;;;;;;795.08;712.22;;;16.00;99.90;;;;;;4898244;29;20033;-86
2023/09/23 10:56:10;;;;;;;813.10;729.78;;;16.00;99.90;;;;;;4889986;29;20087;-85
2023/09/23 10:58:36;;;;;;;720.95;649.50;;;15.90;99.90;;;;;;4893782;29;20059;-86
2023/09/23 11:01:05;;;;;;;833.90;750.80;;;15.90;99.90;;;;;;4892109;29;20073;-86
2023/09/23 11:03:37;;;;;;;908.47;813.05;;;15.80;99.90;;;;;;4901936;29;20153;-86
2023/09/23 11:06:06;;;;;;;956.33;851.63;;;15.80;99.90;;;;;;4892104;29;20111;-85
2023/09/23 11:08:32;;;;;;;934.97;837.38;;;15.90;99.90;;;;;;4881401;29;20044;-86
2023/09/23 11:10:58;;;;;;;933.70;834.30;;;16.00;99.90;;;;;;4883682;29;20079;-87
2023/09/23 11:13:25;;;;;;;885.20;795.38;;;16.00;99.90;;;;;;4899294;29;20047;-86
2023/09/23 11:15:51;;;;;;;891.80;801.00;;;16.00;99.90;;;;;;4884438;29;20387;-85
2023/09/23 11:18:17;;;;;;;900.60;808.42;;;15.90;99.90;;;;;;4891825;29;20060;-85
2023/09/23 11:20:45;;;;;;;868.78;784.30;;;15.80;99.90;;;;;;4893969;29;20085;-86
2023/09/23 11:23:11;;;;;;;876.70;788.47;;;15.70;99.90;;;;;;4893986;29;20048;-84
2023/09/23 11:25:41;;;;;;;918.35;822.70;;;15.70;99.90;;;;;;4910174;29;20166;-86
2023/09/23 11:28:18;;;;;;;882.28;792.97;;;15.60;99.90;;;;;;4888099;29;20044;-85
2023/09/23 11:30:44;;;;;;;921.25;824.00;;;15.60;99.90;;;;;;4895980;29;20063;-87
2023/09/23 11:33:13;;;;;;;886.20;793.13;;;15.60;99.90;;;;;;4900587;29;20055;-87
2023/09/23 11:35:39;;;;;;;902.78;807.45;;;15.60;99.90;;;;;;4890594;29;20051;-87
2023/09/23 11:38:05;;;;;;;921.20;821.47;;;15.60;99.90;;;;;;4889068;29;20044;-87
2023/09/23 11:40:32;;;;;;;878.15;788.05;;;15.60;99.90;;;;;;4887516;29;20063;-86
2023/09/23 11:42:59;;;;;;;898.35;804.42;;;15.70;99.90;;;;;;4891813;29;20155;-86
2023/09/23 11:45:25;;;;;;;910.75;815.67;;;15.80;99.90;;;;;;4883864;29;20071;-87
2023/09/23 11:47:51;;;;;;;875.65;784.47;;;15.90;99.90;;;;;;4892334;29;20053;-87
2023/09/23 11:50:17;;;;;;;882.65;794.85;;;15.90;99.90;;;;;;4893159;29;20049;-87
2023/09/23 11:52:43;;;;;;;891.55;800.72;;;15.90;99.90;;;;;;4910078;29;20409;-88
2023/09/23 11:55:12;;;;;;;946.08;843.58;;;15.80;99.90;;;;;;4881568;29;20056;-89
2023/09/23 12:03:29;;;;;;;946.85;841.85;;;15.50;99.90;;;;;;4892289;29;20120;-82
2023/09/23 12:05:55;;;;;;;885.33;792.42;;;15.50;99.90;;;;;;4877172;29;20446;-91
2023/09/23 12:08:21;;;;;;;923.35;822.25;;;15.50;99.90;;;;;;4865759;29;20553;-89
2023/09/23 12:10:47;;;;;;;922.00;824.30;;;15.50;99.90;;;;;;4877948;29;20041;-90